sensor_id;sensor_type;location;lat;lon;timestamp;P1;durP1;ratioP1;P2;durP2;ratioP2
42912;SDS011;50720;54.324;18.558;2023-08-21T00:01:42;8.43;;;7.28;;
42912;SDS011;50720;54.324;18.558;2023-08-21T00:04:29;8.20;;;7.30;;
42912;SDS011;50720;54.324;18.558;2023-08-21T00:07:18;7.18;;;6.47;;
42912;SDS011;50720;54.324;18.558;2023-08-21T00:10:05;8.65;;;6.53;;
42912;SDS011;50720;54.324;18.558;2023-08-21T00:12:54;7.90;;;7.07;;
42912;SDS011;50720;54.324;18.558;2023-08-21T00:15:41;9.85;;;7.43;;
42912;SDS011;50720;54.324;18.558;2023-08-21T00:18:28;8.95;;;7.65;;
42912;SDS011;50720;54.324;18.558;2023-08-21T00:21:15;8.23;;;6.63;;
42912;SDS011;50720;54.324;18.558;2023-08-21T00:24:04;10.38;;;7.70;;
42912;SDS011;50720;54.324;18.558;2023-08-21T00:26:51;9.07;;;6.95;;
42912;SDS011;50720;54.324;18.558;2023-08-21T00:29:38;7.25;;;6.50;;
42912;SDS011;50720;54.324;18.558;2023-08-21T00:32:25;8.70;;;7.28;;
42912;SDS011;50720;54.324;18.558;2023-08-21T00:35:12;8.68;;;7.18;;
42912;SDS011;50720;54.324;18.558;2023-08-21T00:37:59;7.65;;;6.70;;
42912;SDS011;50720;54.324;18.558;2023-08-21T00:40:48;10.23;;;6.65;;
42912;SDS011;50720;54.324;18.558;2023-08-21T00:43:34;8.23;;;7.40;;
42912;SDS011;50720;54.324;18.558;2023-08-21T00:46:22;10.43;;;6.45;;
42912;SDS011;50720;54.324;18.558;2023-08-21T00:49:09;9.40;;;7.13;;
42912;SDS011;50720;54.324;18.558;2023-08-21T00:51:57;7.50;;;6.57;;
42912;SDS011;50720;54.324;18.558;2023-08-21T00:54:44;8.25;;;6.97;;
42912;SDS011;50720;54.324;18.558;2023-08-21T00:57:32;10.27;;;7.40;;
42912;SDS011;50720;54.324;18.558;2023-08-21T01:00:20;10.52;;;6.95;;
42912;SDS011;50720;54.324;18.558;2023-08-21T01:03:08;8.73;;;7.68;;
42912;SDS011;50720;54.324;18.558;2023-08-21T01:05:55;7.57;;;6.57;;
42912;SDS011;50720;54.324;18.558;2023-08-21T01:08:46;8.65;;;7.20;;
42912;SDS011;50720;54.324;18.558;2023-08-21T01:11:45;9.77;;;7.18;;
42912;SDS011;50720;54.324;18.558;2023-08-21T01:14:41;13.30;;;7.75;;
42912;SDS011;50720;54.324;18.558;2023-08-21T01:17:34;10.05;;;7.05;;
42912;SDS011;50720;54.324;18.558;2023-08-21T01:20:24;9.00;;;6.90;;
42912;SDS011;50720;54.324;18.558;2023-08-21T01:23:25;12.90;;;7.80;;
42912;SDS011;50720;54.324;18.558;2023-08-21T01:26:14;9.48;;;7.68;;
42912;SDS011;50720;54.324;18.558;2023-08-21T01:29:01;9.65;;;7.20;;
42912;SDS011;50720;54.324;18.558;2023-08-21T01:31:50;9.55;;;8.02;;
42912;SDS011;50720;54.324;18.558;2023-08-21T01:34:41;10.23;;;8.18;;
42912;SDS011;50720;54.324;18.558;2023-08-21T01:37:29;8.52;;;7.47;;
42912;SDS011;50720;54.324;18.558;2023-08-21T01:40:21;11.23;;;8.40;;
42912;SDS011;50720;54.324;18.558;2023-08-21T01:43:08;11.13;;;8.43;;
42912;SDS011;50720;54.324;18.558;2023-08-21T01:45:55;14.63;;;9.13;;
42912;SDS011;50720;54.324;18.558;2023-08-21T01:48:42;12.77;;;9.25;;
42912;SDS011;50720;54.324;18.558;2023-08-21T01:51:29;10.73;;;8.20;;
42912;SDS011;50720;54.324;18.558;2023-08-21T01:54:16;11.55;;;8.15;;
42912;SDS011;50720;54.324;18.558;2023-08-21T01:57:04;10.02;;;7.85;;
42912;SDS011;50720;54.324;18.558;2023-08-21T01:59:51;11.15;;;7.90;;
42912;SDS011;50720;54.324;18.558;2023-08-21T02:02:38;11.93;;;8.55;;
42912;SDS011;50720;54.324;18.558;2023-08-21T02:05:25;13.40;;;8.00;;
42912;SDS011;50720;54.324;18.558;2023-08-21T02:08:12;12.23;;;7.95;;
42912;SDS011;50720;54.324;18.558;2023-08-21T02:11:00;11.57;;;7.90;;
42912;SDS011;50720;54.324;18.558;2023-08-21T02:13:49;12.43;;;7.72;;
42912;SDS011;50720;54.324;18.558;2023-08-21T02:16:36;9.18;;;7.75;;
42912;SDS011;50720;54.324;18.558;2023-08-21T02:19:23;9.27;;;7.38;;
42912;SDS011;50720;54.324;18.558;2023-08-21T02:22:10;10.90;;;7.70;;
42912;SDS011;50720;54.324;18.558;2023-08-21T02:24:56;11.23;;;7.75;;
42912;SDS011;50720;54.324;18.558;2023-08-21T02:27:43;11.10;;;8.20;;
42912;SDS011;50720;54.324;18.558;2023-08-21T02:30:32;13.65;;;7.88;;
42912;SDS011;50720;54.324;18.558;2023-08-21T02:33:19;9.15;;;6.75;;
42912;SDS011;50720;54.324;18.558;2023-08-21T02:36:06;11.45;;;7.32;;
42912;SDS011;50720;54.324;18.558;2023-08-21T02:38:53;9.18;;;6.20;;
42912;SDS011;50720;54.324;18.558;2023-08-21T02:41:40;14.25;;;7.70;;
42912;SDS011;50720;54.324;18.558;2023-08-21T02:44:28;11.80;;;7.68;;
42912;SDS011;50720;54.324;18.558;2023-08-21T02:47:16;11.30;;;7.15;;
42912;SDS011;50720;54.324;18.558;2023-08-21T02:50:03;10.00;;;6.80;;
42912;SDS011;50720;54.324;18.558;2023-08-21T02:52:50;11.93;;;6.90;;
42912;SDS011;50720;54.324;18.558;2023-08-21T02:55:38;12.82;;;6.60;;
42912;SDS011;50720;54.324;18.558;2023-08-21T02:58:24;11.23;;;6.32;;
42912;SDS011;50720;54.324;18.558;2023-08-21T03:01:12;9.80;;;6.95;;
42912;SDS011;50720;54.324;18.558;2023-08-21T03:04:00;11.18;;;6.47;;
42912;SDS011;50720;54.324;18.558;2023-08-21T03:06:47;8.75;;;6.32;;
42912;SDS011;50720;54.324;18.558;2023-08-21T03:09:34;8.02;;;6.35;;
42912;SDS011;50720;54.324;18.558;2023-08-21T03:12:22;8.52;;;6.00;;
42912;SDS011;50720;54.324;18.558;2023-08-21T03:15:09;8.73;;;6.10;;
42912;SDS011;50720;54.324;18.558;2023-08-21T03:17:56;10.13;;;5.13;;
42912;SDS011;50720;54.324;18.558;2023-08-21T03:20:46;13.60;;;6.07;;
42912;SDS011;50720;54.324;18.558;2023-08-21T03:23:33;7.68;;;5.13;;
42912;SDS011;50720;54.324;18.558;2023-08-21T03:26:20;7.78;;;4.60;;
42912;SDS011;50720;54.324;18.558;2023-08-21T03:29:07;4.95;;;3.83;;
42912;SDS011;50720;54.324;18.558;2023-08-21T03:31:54;4.38;;;2.97;;
42912;SDS011;50720;54.324;18.558;2023-08-21T03:34:42;7.13;;;3.20;;
42912;SDS011;50720;54.324;18.558;2023-08-21T03:37:31;3.88;;;3.40;;
42912;SDS011;50720;54.324;18.558;2023-08-21T03:40:18;3.33;;;2.83;;
42912;SDS011;50720;54.324;18.558;2023-08-21T03:43:05;3.65;;;3.08;;
42912;SDS011;50720;54.324;18.558;2023-08-21T03:45:52;6.63;;;3.47;;
42912;SDS011;50720;54.324;18.558;2023-08-21T03:48:39;4.07;;;2.65;;
42912;SDS011;50720;54.324;18.558;2023-08-21T03:51:26;3.78;;;3.35;;
42912;SDS011;50720;54.324;18.558;2023-08-21T03:54:14;5.63;;;2.95;;
42912;SDS011;50720;54.324;18.558;2023-08-21T03:57:02;5.82;;;3.17;;
42912;SDS011;50720;54.324;18.558;2023-08-21T03:59:49;6.25;;;3.47;;
42912;SDS011;50720;54.324;18.558;2023-08-21T04:02:36;9.18;;;3.20;;
42912;SDS011;50720;54.324;18.558;2023-08-21T04:05:23;8.50;;;3.40;;
42912;SDS011;50720;54.324;18.558;2023-08-21T04:08:10;4.00;;;3.10;;
42912;SDS011;50720;54.324;18.558;2023-08-21T04:10:58;4.65;;;3.45;;
42912;SDS011;50720;54.324;18.558;2023-08-21T04:13:45;3.58;;;2.83;;
42912;SDS011;50720;54.324;18.558;2023-08-21T04:16:32;4.03;;;3.00;;
42912;SDS011;50720;54.324;18.558;2023-08-21T04:19:19;4.28;;;2.72;;
42912;SDS011;50720;54.324;18.558;2023-08-21T04:22:06;7.65;;;3.10;;
42912;SDS011;50720;54.324;18.558;2023-08-21T04:24:53;3.70;;;3.00;;
42912;SDS011;50720;54.324;18.558;2023-08-21T04:27:41;4.00;;;2.92;;
42912;SDS011;50720;54.324;18.558;2023-08-21T04:30:29;3.17;;;2.88;;
42912;SDS011;50720;54.324;18.558;2023-08-21T04:33:15;5.20;;;2.92;;
42912;SDS011;50720;54.324;18.558;2023-08-21T04:36:03;3.53;;;3.13;;
42912;SDS011;50720;54.324;18.558;2023-08-21T04:38:50;10.68;;;3.75;;
42912;SDS011;50720;54.324;18.558;2023-08-21T04:41:39;8.10;;;3.83;;
42912;SDS011;50720;54.324;18.558;2023-08-21T04:44:27;9.82;;;3.30;;
42912;SDS011;50720;54.324;18.558;2023-08-21T04:47:19;5.65;;;3.70;;
42912;SDS011;50720;54.324;18.558;2023-08-21T04:52:53;4.63;;;3.60;;
42912;SDS011;50720;54.324;18.558;2023-08-21T04:55:40;6.95;;;3.33;;
42912;SDS011;50720;54.324;18.558;2023-08-21T04:58:28;8.68;;;3.63;;
42912;SDS011;50720;54.324;18.558;2023-08-21T05:01:17;6.80;;;3.78;;
42912;SDS011;50720;54.324;18.558;2023-08-21T05:04:04;13.65;;;4.03;;
42912;SDS011;50720;54.324;18.558;2023-08-21T05:06:51;5.55;;;3.90;;
42912;SDS011;50720;54.324;18.558;2023-08-21T05:09:38;6.05;;;3.90;;
42912;SDS011;50720;54.324;18.558;2023-08-21T05:12:25;6.75;;;3.67;;
42912;SDS011;50720;54.324;18.558;2023-08-21T05:15:12;9.00;;;4.25;;
42912;SDS011;50720;54.324;18.558;2023-08-21T05:18:01;10.70;;;4.68;;
42912;SDS011;50720;54.324;18.558;2023-08-21T05:20:49;8.20;;;4.70;;
42912;SDS011;50720;54.324;18.558;2023-08-21T05:23:37;11.10;;;4.57;;
42912;SDS011;50720;54.324;18.558;2023-08-21T05:26:24;8.52;;;4.78;;
42912;SDS011;50720;54.324;18.558;2023-08-21T05:29:11;12.85;;;4.55;;
42912;SDS011;50720;54.324;18.558;2023-08-21T05:31:58;15.48;;;5.05;;
42912;SDS011;50720;54.324;18.558;2023-08-21T05:34:46;5.35;;;3.70;;
42912;SDS011;50720;54.324;18.558;2023-08-21T05:37:33;13.45;;;3.90;;
42912;SDS011;50720;54.324;18.558;2023-08-21T05:40:20;9.23;;;4.50;;
42912;SDS011;50720;54.324;18.558;2023-08-21T05:43:07;12.38;;;4.25;;
42912;SDS011;50720;54.324;18.558;2023-08-21T05:45:54;8.52;;;4.50;;
42912;SDS011;50720;54.324;18.558;2023-08-21T05:48:42;4.43;;;3.17;;
42912;SDS011;50720;54.324;18.558;2023-08-21T05:51:30;12.35;;;4.47;;
42912;SDS011;50720;54.324;18.558;2023-08-21T05:54:17;8.85;;;3.83;;
42912;SDS011;50720;54.324;18.558;2023-08-21T05:57:04;11.52;;;3.60;;
42912;SDS011;50720;54.324;18.558;2023-08-21T05:59:52;15.73;;;5.38;;
42912;SDS011;50720;54.324;18.558;2023-08-21T06:02:39;12.57;;;4.28;;
42912;SDS011;50720;54.324;18.558;2023-08-21T06:05:27;10.07;;;4.25;;
42912;SDS011;50720;54.324;18.558;2023-08-21T06:08:15;10.15;;;3.85;;
42912;SDS011;50720;54.324;18.558;2023-08-21T06:11:03;6.72;;;3.75;;
42912;SDS011;50720;54.324;18.558;2023-08-21T06:13:49;8.27;;;3.80;;
42912;SDS011;50720;54.324;18.558;2023-08-21T06:16:37;9.07;;;3.65;;
42912;SDS011;50720;54.324;18.558;2023-08-21T06:19:24;6.55;;;3.30;;
42912;SDS011;50720;54.324;18.558;2023-08-21T06:22:11;8.68;;;4.15;;
42912;SDS011;50720;54.324;18.558;2023-08-21T06:25:01;8.57;;;3.28;;
42912;SDS011;50720;54.324;18.558;2023-08-21T06:27:48;6.38;;;3.33;;
42912;SDS011;50720;54.324;18.558;2023-08-21T06:30:35;20.52;;;4.68;;
42912;SDS011;50720;54.324;18.558;2023-08-21T06:33:22;17.42;;;4.38;;
42912;SDS011;50720;54.324;18.558;2023-08-21T06:36:09;14.00;;;4.50;;
42912;SDS011;50720;54.324;18.558;2023-08-21T06:38:56;7.15;;;3.53;;
42912;SDS011;50720;54.324;18.558;2023-08-21T06:41:45;12.32;;;4.60;;
42912;SDS011;50720;54.324;18.558;2023-08-21T06:44:32;9.15;;;3.95;;
42912;SDS011;50720;54.324;18.558;2023-08-21T06:47:18;11.50;;;3.42;;
42912;SDS011;50720;54.324;18.558;2023-08-21T06:50:06;10.77;;;3.78;;
42912;SDS011;50720;54.324;18.558;2023-08-21T06:52:53;22.63;;;4.03;;
42912;SDS011;50720;54.324;18.558;2023-08-21T06:55:40;12.13;;;3.88;;
42912;SDS011;50720;54.324;18.558;2023-08-21T06:58:28;6.93;;;3.22;;
42912;SDS011;50720;54.324;18.558;2023-08-21T07:01:16;6.45;;;3.60;;
42912;SDS011;50720;54.324;18.558;2023-08-21T07:04:03;5.22;;;3.00;;
42912;SDS011;50720;54.324;18.558;2023-08-21T07:06:50;5.50;;;3.75;;
42912;SDS011;50720;54.324;18.558;2023-08-21T07:09:37;6.90;;;3.22;;
42912;SDS011;50720;54.324;18.558;2023-08-21T07:12:25;4.30;;;2.90;;
42912;SDS011;50720;54.324;18.558;2023-08-21T07:15:13;10.82;;;3.70;;
42912;SDS011;50720;54.324;18.558;2023-08-21T07:18:00;6.25;;;3.00;;
42912;SDS011;50720;54.324;18.558;2023-08-21T07:20:47;14.13;;;3.60;;
42912;SDS011;50720;54.324;18.558;2023-08-21T07:23:34;7.40;;;3.17;;
42912;SDS011;50720;54.324;18.558;2023-08-21T07:26:21;12.50;;;3.22;;
42912;SDS011;50720;54.324;18.558;2023-08-21T07:29:08;7.75;;;3.25;;
42912;SDS011;50720;54.324;18.558;2023-08-21T07:31:56;17.65;;;4.40;;
42912;SDS011;50720;54.324;18.558;2023-08-21T07:34:43;7.47;;;2.83;;
42912;SDS011;50720;54.324;18.558;2023-08-21T07:37:30;8.05;;;3.33;;
42912;SDS011;50720;54.324;18.558;2023-08-21T07:40:17;11.63;;;2.95;;
42912;SDS011;50720;54.324;18.558;2023-08-21T07:43:04;5.65;;;2.60;;
42912;SDS011;50720;54.324;18.558;2023-08-21T07:45:51;8.10;;;2.78;;
42912;SDS011;50720;54.324;18.558;2023-08-21T07:48:39;6.88;;;2.50;;
42912;SDS011;50720;54.324;18.558;2023-08-21T07:51:26;13.38;;;4.28;;
42912;SDS011;50720;54.324;18.558;2023-08-21T07:54:13;6.18;;;2.25;;
42912;SDS011;50720;54.324;18.558;2023-08-21T07:57:01;5.35;;;2.70;;
42912;SDS011;50720;54.324;18.558;2023-08-21T07:59:49;3.55;;;2.30;;
42912;SDS011;50720;54.324;18.558;2023-08-21T08:02:36;4.20;;;1.83;;
42912;SDS011;50720;54.324;18.558;2023-08-21T08:05:24;4.85;;;2.08;;
42912;SDS011;50720;54.324;18.558;2023-08-21T08:08:12;5.95;;;1.58;;
42912;SDS011;50720;54.324;18.558;2023-08-21T08:11:00;5.60;;;2.00;;
42912;SDS011;50720;54.324;18.558;2023-08-21T08:13:48;5.72;;;1.75;;
42912;SDS011;50720;54.324;18.558;2023-08-21T08:16:35;8.63;;;1.67;;
42912;SDS011;50720;54.324;18.558;2023-08-21T08:19:22;5.95;;;1.90;;
42912;SDS011;50720;54.324;18.558;2023-08-21T08:22:11;6.78;;;1.90;;
42912;SDS011;50720;54.324;18.558;2023-08-21T08:24:58;3.80;;;1.67;;
42912;SDS011;50720;54.324;18.558;2023-08-21T08:27:45;8.50;;;2.20;;
42912;SDS011;50720;54.324;18.558;2023-08-21T08:30:33;4.65;;;2.17;;
42912;SDS011;50720;54.324;18.558;2023-08-21T08:33:20;2.53;;;1.27;;
42912;SDS011;50720;54.324;18.558;2023-08-21T08:36:08;6.70;;;1.77;;
42912;SDS011;50720;54.324;18.558;2023-08-21T08:38:56;10.32;;;1.98;;
42912;SDS011;50720;54.324;18.558;2023-08-21T08:41:52;9.18;;;2.00;;
42912;SDS011;50720;54.324;18.558;2023-08-21T08:44:42;14.80;;;3.30;;
42912;SDS011;50720;54.324;18.558;2023-08-21T08:47:31;6.57;;;1.90;;
42912;SDS011;50720;54.324;18.558;2023-08-21T08:50:19;11.20;;;2.03;;
42912;SDS011;50720;54.324;18.558;2023-08-21T08:53:07;7.45;;;1.90;;
42912;SDS011;50720;54.324;18.558;2023-08-21T08:55:56;4.35;;;1.25;;
42912;SDS011;50720;54.324;18.558;2023-08-21T08:58:44;3.13;;;1.30;;
42912;SDS011;50720;54.324;18.558;2023-08-21T09:01:32;7.72;;;1.75;;
42912;SDS011;50720;54.324;18.558;2023-08-21T09:04:19;3.75;;;1.52;;
42912;SDS011;50720;54.324;18.558;2023-08-21T09:07:07;7.25;;;1.60;;
42912;SDS011;50720;54.324;18.558;2023-08-21T09:09:55;4.72;;;1.90;;
42912;SDS011;50720;54.324;18.558;2023-08-21T09:12:46;4.45;;;1.40;;
42912;SDS011;50720;54.324;18.558;2023-08-21T09:15:33;3.38;;;1.15;;
42912;SDS011;50720;54.324;18.558;2023-08-21T09:18:22;7.03;;;1.98;;
42912;SDS011;50720;54.324;18.558;2023-08-21T09:21:09;5.53;;;1.60;;
42912;SDS011;50720;54.324;18.558;2023-08-21T09:23:58;4.85;;;1.58;;
42912;SDS011;50720;54.324;18.558;2023-08-21T09:26:47;2.83;;;1.00;;
42912;SDS011;50720;54.324;18.558;2023-08-21T09:29:39;3.75;;;0.98;;
42912;SDS011;50720;54.324;18.558;2023-08-21T09:32:26;3.65;;;1.52;;
42912;SDS011;50720;54.324;18.558;2023-08-21T09:35:13;4.88;;;1.00;;
42912;SDS011;50720;54.324;18.558;2023-08-21T09:38:01;3.10;;;1.58;;
42912;SDS011;50720;54.324;18.558;2023-08-21T09:40:53;2.67;;;1.02;;
42912;SDS011;50720;54.324;18.558;2023-08-21T09:43:41;4.53;;;1.48;;
42912;SDS011;50720;54.324;18.558;2023-08-21T09:46:30;5.13;;;0.90;;
42912;SDS011;50720;54.324;18.558;2023-08-21T09:49:18;5.90;;;1.20;;
42912;SDS011;50720;54.324;18.558;2023-08-21T09:52:08;3.05;;;1.20;;
42912;SDS011;50720;54.324;18.558;2023-08-21T09:54:56;4.13;;;1.15;;
42912;SDS011;50720;54.324;18.558;2023-08-21T09:57:44;5.00;;;1.80;;
42912;SDS011;50720;54.324;18.558;2023-08-21T10:00:32;5.15;;;1.23;;
42912;SDS011;50720;54.324;18.558;2023-08-21T10:03:23;7.10;;;1.55;;
42912;SDS011;50720;54.324;18.558;2023-08-21T10:06:11;6.32;;;1.40;;
42912;SDS011;50720;54.324;18.558;2023-08-21T10:09:01;2.50;;;1.10;;
42912;SDS011;50720;54.324;18.558;2023-08-21T10:11:48;2.25;;;0.90;;
42912;SDS011;50720;54.324;18.558;2023-08-21T10:14:35;5.80;;;1.35;;
42912;SDS011;50720;54.324;18.558;2023-08-21T10:17:23;5.10;;;1.17;;
42912;SDS011;50720;54.324;18.558;2023-08-21T10:20:12;7.32;;;1.83;;
42912;SDS011;50720;54.324;18.558;2023-08-21T10:23:00;6.43;;;1.52;;
42912;SDS011;50720;54.324;18.558;2023-08-21T10:25:47;7.13;;;1.35;;
42912;SDS011;50720;54.324;18.558;2023-08-21T10:28:48;4.72;;;1.20;;
42912;SDS011;50720;54.324;18.558;2023-08-21T10:31:36;4.57;;;0.95;;
42912;SDS011;50720;54.324;18.558;2023-08-21T10:34:25;4.55;;;0.95;;
42912;SDS011;50720;54.324;18.558;2023-08-21T10:37:19;3.97;;;1.60;;
42912;SDS011;50720;54.324;18.558;2023-08-21T10:40:07;3.65;;;1.23;;
42912;SDS011;50720;54.324;18.558;2023-08-21T10:46:28;6.15;;;1.38;;
42912;SDS011;50720;54.324;18.558;2023-08-21T10:49:38;8.80;;;1.50;;
42912;SDS011;50720;54.324;18.558;2023-08-21T10:52:27;6.32;;;1.40;;
42912;SDS011;50720;54.324;18.558;2023-08-21T10:55:15;3.55;;;1.00;;
42912;SDS011;50720;54.324;18.558;2023-08-21T10:58:03;14.95;;;1.65;;
42912;SDS011;50720;54.324;18.558;2023-08-21T11:00:57;4.68;;;1.67;;
42912;SDS011;50720;54.324;18.558;2023-08-21T11:03:45;14.20;;;2.95;;
42912;SDS011;50720;54.324;18.558;2023-08-21T11:06:32;6.32;;;1.42;;
42912;SDS011;50720;54.324;18.558;2023-08-21T11:09:21;3.97;;;1.00;;
42912;SDS011;50720;54.324;18.558;2023-08-21T11:12:08;12.25;;;2.28;;
42912;SDS011;50720;54.324;18.558;2023-08-21T11:14:57;11.90;;;1.73;;
42912;SDS011;50720;54.324;18.558;2023-08-21T11:17:50;8.82;;;1.52;;
42912;SDS011;50720;54.324;18.558;2023-08-21T11:20:39;4.53;;;2.10;;
42912;SDS011;50720;54.324;18.558;2023-08-21T11:23:31;4.72;;;1.77;;
42912;SDS011;50720;54.324;18.558;2023-08-21T11:26:20;5.03;;;1.88;;
42912;SDS011;50720;54.324;18.558;2023-08-21T11:29:07;11.38;;;1.67;;
42912;SDS011;50720;54.324;18.558;2023-08-21T11:31:54;6.00;;;1.30;;
42912;SDS011;50720;54.324;18.558;2023-08-21T11:34:41;4.60;;;0.95;;
42912;SDS011;50720;54.324;18.558;2023-08-21T11:37:33;3.30;;;0.88;;
42912;SDS011;50720;54.324;18.558;2023-08-21T11:40:19;4.88;;;1.40;;
42912;SDS011;50720;54.324;18.558;2023-08-21T11:43:08;2.95;;;1.10;;
42912;SDS011;50720;54.324;18.558;2023-08-21T11:45:57;11.82;;;1.30;;
42912;SDS011;50720;54.324;18.558;2023-08-21T11:48:44;9.57;;;1.58;;
42912;SDS011;50720;54.324;18.558;2023-08-21T11:51:37;2.45;;;0.70;;
42912;SDS011;50720;54.324;18.558;2023-08-21T11:54:24;5.05;;;1.17;;
42912;SDS011;50720;54.324;18.558;2023-08-21T11:57:12;2.92;;;0.95;;
42912;SDS011;50720;54.324;18.558;2023-08-21T12:00:01;1.35;;;0.70;;
42912;SDS011;50720;54.324;18.558;2023-08-21T12:02:54;7.00;;;1.45;;
42912;SDS011;50720;54.324;18.558;2023-08-21T12:05:42;2.85;;;0.88;;
42912;SDS011;50720;54.324;18.558;2023-08-21T12:08:29;2.47;;;0.93;;
42912;SDS011;50720;54.324;18.558;2023-08-21T12:11:16;3.17;;;0.93;;
42912;SDS011;50720;54.324;18.558;2023-08-21T12:14:04;3.28;;;0.77;;
42912;SDS011;50720;54.324;18.558;2023-08-21T12:16:53;6.32;;;0.88;;
42912;SDS011;50720;54.324;18.558;2023-08-21T12:19:39;3.20;;;1.08;;
42912;SDS011;50720;54.324;18.558;2023-08-21T12:22:28;2.45;;;0.80;;
42912;SDS011;50720;54.324;18.558;2023-08-21T12:25:14;6.20;;;0.88;;
42912;SDS011;50720;54.324;18.558;2023-08-21T12:28:02;4.78;;;1.17;;
42912;SDS011;50720;54.324;18.558;2023-08-21T12:30:49;2.63;;;0.60;;
42912;SDS011;50720;54.324;18.558;2023-08-21T12:33:39;2.38;;;0.60;;
42912;SDS011;50720;54.324;18.558;2023-08-21T12:36:26;2.17;;;1.23;;
42912;SDS011;50720;54.324;18.558;2023-08-21T12:39:13;3.03;;;0.68;;
42912;SDS011;50720;54.324;18.558;2023-08-21T12:42:02;2.95;;;0.95;;
42912;SDS011;50720;54.324;18.558;2023-08-21T12:44:49;2.58;;;0.70;;
42912;SDS011;50720;54.324;18.558;2023-08-21T12:47:36;5.55;;;0.47;;
42912;SDS011;50720;54.324;18.558;2023-08-21T12:50:25;16.98;;;2.17;;
42912;SDS011;50720;54.324;18.558;2023-08-21T12:53:12;11.23;;;2.45;;
42912;SDS011;50720;54.324;18.558;2023-08-21T12:55:59;11.15;;;1.50;;
42912;SDS011;50720;54.324;18.558;2023-08-21T12:58:46;25.95;;;3.88;;
42912;SDS011;50720;54.324;18.558;2023-08-21T13:01:34;11.43;;;1.63;;
42912;SDS011;50720;54.324;18.558;2023-08-21T13:04:22;6.05;;;1.60;;
42912;SDS011;50720;54.324;18.558;2023-08-21T13:07:10;5.18;;;1.00;;
42912;SDS011;50720;54.324;18.558;2023-08-21T13:09:57;23.75;;;6.68;;
42912;SDS011;50720;54.324;18.558;2023-08-21T13:12:44;6.30;;;1.75;;
42912;SDS011;50720;54.324;18.558;2023-08-21T13:15:31;9.98;;;1.38;;
42912;SDS011;50720;54.324;18.558;2023-08-21T13:18:18;10.98;;;1.13;;
42912;SDS011;50720;54.324;18.558;2023-08-21T13:21:05;13.95;;;1.83;;
42912;SDS011;50720;54.324;18.558;2023-08-21T13:23:54;23.73;;;2.65;;
42912;SDS011;50720;54.324;18.558;2023-08-21T13:26:40;11.27;;;0.85;;
42912;SDS011;50720;54.324;18.558;2023-08-21T13:29:28;6.82;;;0.65;;
42912;SDS011;50720;54.324;18.558;2023-08-21T13:32:15;4.88;;;0.90;;
42912;SDS011;50720;54.324;18.558;2023-08-21T13:35:02;1.40;;;0.70;;
42912;SDS011;50720;54.324;18.558;2023-08-21T13:37:51;9.27;;;1.08;;
42912;SDS011;50720;54.324;18.558;2023-08-21T13:40:40;3.38;;;0.80;;
42912;SDS011;50720;54.324;18.558;2023-08-21T13:43:27;5.05;;;1.23;;
42912;SDS011;50720;54.324;18.558;2023-08-21T13:46:14;7.72;;;1.17;;
42912;SDS011;50720;54.324;18.558;2023-08-21T13:49:01;7.78;;;1.13;;
42912;SDS011;50720;54.324;18.558;2023-08-21T13:51:48;7.05;;;1.20;;
42912;SDS011;50720;54.324;18.558;2023-08-21T13:54:35;5.90;;;1.17;;
42912;SDS011;50720;54.324;18.558;2023-08-21T13:57:23;4.88;;;1.00;;
42912;SDS011;50720;54.324;18.558;2023-08-21T14:00:10;3.92;;;0.60;;
42912;SDS011;50720;54.324;18.558;2023-08-21T14:02:58;7.40;;;1.17;;
42912;SDS011;50720;54.324;18.558;2023-08-21T14:05:45;4.57;;;0.90;;
42912;SDS011;50720;54.324;18.558;2023-08-21T14:08:32;2.75;;;0.60;;
42912;SDS011;50720;54.324;18.558;2023-08-21T14:11:19;5.25;;;1.90;;
42912;SDS011;50720;54.324;18.558;2023-08-21T14:14:08;1.77;;;0.60;;
42912;SDS011;50720;54.324;18.558;2023-08-21T14:16:55;5.90;;;0.80;;
42912;SDS011;50720;54.324;18.558;2023-08-21T14:19:43;5.55;;;0.98;;
42912;SDS011;50720;54.324;18.558;2023-08-21T14:22:29;6.18;;;0.65;;
42912;SDS011;50720;54.324;18.558;2023-08-21T14:25:17;5.78;;;0.93;;
42912;SDS011;50720;54.324;18.558;2023-08-21T14:28:04;6.03;;;0.93;;
42912;SDS011;50720;54.324;18.558;2023-08-21T14:30:52;3.17;;;0.73;;
42912;SDS011;50720;54.324;18.558;2023-08-21T14:33:40;6.40;;;0.88;;
42912;SDS011;50720;54.324;18.558;2023-08-21T14:36:27;1.75;;;1.02;;
42912;SDS011;50720;54.324;18.558;2023-08-21T14:39:14;6.32;;;0.80;;
42912;SDS011;50720;54.324;18.558;2023-08-21T14:42:01;4.28;;;1.33;;
42912;SDS011;50720;54.324;18.558;2023-08-21T14:44:48;6.85;;;1.17;;
42912;SDS011;50720;54.324;18.558;2023-08-21T14:47:37;5.75;;;1.17;;
42912;SDS011;50720;54.324;18.558;2023-08-21T14:50:24;3.83;;;1.25;;
42912;SDS011;50720;54.324;18.558;2023-08-21T14:53:11;8.02;;;1.40;;
42912;SDS011;50720;54.324;18.558;2023-08-21T14:55:58;4.53;;;1.05;;
42912;SDS011;50720;54.324;18.558;2023-08-21T14:58:45;9.35;;;1.23;;
42912;SDS011;50720;54.324;18.558;2023-08-21T15:01:31;12.43;;;2.20;;
42912;SDS011;50720;54.324;18.558;2023-08-21T15:04:20;3.60;;;1.10;;
42912;SDS011;50720;54.324;18.558;2023-08-21T15:07:07;3.58;;;0.70;;
42912;SDS011;50720;54.324;18.558;2023-08-21T15:09:54;5.03;;;0.93;;
42912;SDS011;50720;54.324;18.558;2023-08-21T15:12:41;4.93;;;1.38;;
42912;SDS011;50720;54.324;18.558;2023-08-21T15:15:29;7.13;;;1.00;;
42912;SDS011;50720;54.324;18.558;2023-08-21T15:18:16;3.92;;;0.85;;
42912;SDS011;50720;54.324;18.558;2023-08-21T15:21:05;7.85;;;1.20;;
42912;SDS011;50720;54.324;18.558;2023-08-21T15:23:52;8.55;;;2.05;;
42912;SDS011;50720;54.324;18.558;2023-08-21T15:26:39;5.43;;;0.90;;
42912;SDS011;50720;54.324;18.558;2023-08-21T15:29:26;6.03;;;1.65;;
42912;SDS011;50720;54.324;18.558;2023-08-21T15:32:14;4.80;;;1.20;;
42912;SDS011;50720;54.324;18.558;2023-08-21T15:35:00;3.88;;;0.77;;
42912;SDS011;50720;54.324;18.558;2023-08-21T15:37:51;3.55;;;1.10;;
42912;SDS011;50720;54.324;18.558;2023-08-21T16:08:37;4.87;;;1.30;;
42912;SDS011;50720;54.324;18.558;2023-08-21T16:11:25;3.83;;;1.00;;
42912;SDS011;50720;54.324;18.558;2023-08-21T16:14:12;2.47;;;1.00;;
42912;SDS011;50720;54.324;18.558;2023-08-21T16:25:00;8.57;;;1.60;;
42912;SDS011;50720;54.324;18.558;2023-08-21T16:27:47;3.42;;;0.90;;
42912;SDS011;50720;54.324;18.558;2023-08-21T16:30:34;7.22;;;1.13;;
42912;SDS011;50720;54.324;18.558;2023-08-21T16:33:21;8.63;;;1.65;;
42912;SDS011;50720;54.324;18.558;2023-08-21T16:36:08;5.68;;;1.33;;
42912;SDS011;50720;54.324;18.558;2023-08-21T16:38:56;5.30;;;0.77;;
42912;SDS011;50720;54.324;18.558;2023-08-21T16:41:44;3.70;;;1.10;;
42912;SDS011;50720;54.324;18.558;2023-08-21T16:44:31;2.45;;;1.00;;
42912;SDS011;50720;54.324;18.558;2023-08-21T16:47:18;5.22;;;1.52;;
42912;SDS011;50720;54.324;18.558;2023-08-21T16:50:05;4.78;;;1.13;;
42912;SDS011;50720;54.324;18.558;2023-08-21T16:52:52;4.95;;;1.45;;
42912;SDS011;50720;54.324;18.558;2023-08-21T16:55:39;6.13;;;2.50;;
42912;SDS011;50720;54.324;18.558;2023-08-21T16:58:28;8.15;;;1.60;;
42912;SDS011;50720;54.324;18.558;2023-08-21T17:01:15;3.63;;;1.17;;
42912;SDS011;50720;54.324;18.558;2023-08-21T17:04:01;6.93;;;1.27;;
42912;SDS011;50720;54.324;18.558;2023-08-21T17:06:48;4.43;;;1.60;;
42912;SDS011;50720;54.324;18.558;2023-08-21T17:09:35;3.78;;;1.30;;
42912;SDS011;50720;54.324;18.558;2023-08-21T17:12:22;6.45;;;1.48;;
42912;SDS011;50720;54.324;18.558;2023-08-21T17:15:10;4.13;;;1.42;;